Relevés horaires Matro (Suisse)


Relevés horaires à Matro - Dimanche 24 Févr. 2019
Heure UTC1 Température [°C] Vent [km/h] Hum. [%] Pres.4 [hPa] Visi. [Km] Nébu. [octa] Préc.5 [mm] Cond.
2m. Res. Ros. Dir.2 Vit. Moy. Raf.3
23:00 4.3 -0.5 -9.8 NO 25.9 -- 44.4 35 850(0.1/3h) -- -- -- --
22:00 4.2 -0.8 -9.5 NNO 27.8 -- 46.3 36 850(0.0/3h) -- -- -- --
21:00 4.9 -0.6 -8.0 NNO 37.0 -- 63.0 39 850(0.2/3h) -- -- -- --
20:00 4.7 -1.4 -7.4 NNO 44.4 -- 63.0 41 850(0.6/3h) -- -- -- --
19:00 5.0 -1 -8.6 NNO 44.4 -- 55.6 37 850(0.7/3h) -- -- -- --
18:00 5.1 -0.2 -12.4 NNO 35.2 -- 51.9 27 850(0.2/3h) -- -- -- --
17:00 5.3 0.2 -12.8 NNO 33.3 -- 44.4 26 850(-0.3/3h) -- -- -- --
16:00 5.9 1.3 -15.9 NO 29.6 -- 38.9 19 850(-0.4/3h) -- -- -- --
15:00 6.4 3 -16.6 NNO 18.5 -- 29.6 17 850(0.0/3h) -- -- -- --
14:00 5.6 2.8 -13.0 N 13.0 -- 22.2 25 850(-0.3/3h) -- -- -- --
13:00 6.5 3.9 -13.7 NO 13.0 -- 20.4 22 850(0.2/3h) -- -- -- --
12:00 7.2 4.8 -16.2 NO 13.0 -- 31.5 17 850(0.7/3h) -- -- -- --
11:00 7.3 3.9 -16.9 NNO 20.4 -- 27.8 16 850(1.3/3h) -- -- -- --
10:00 7.1 3.5 -18.6 NO 22.2 -- 29.6 14 850(1.1/3h) -- -- -- --
09:00 6.2 2.3 -15.0 NNO 22.2 -- 31.5 20 850(1.0/3h) -- -- -- --
08:00 5.4 1.5 -16.8 NNO 20.4 -- 31.5 18 850(0.9/3h) -- -- -- --
07:00 4.2 -0.2 -15.2 NNO 22.2 -- 25.9 23 850(0.6/3h) -- -- -- --
06:00 5.4 2 -15.9 ONO 16.7 -- 31.5 20 850(0.2/3h) -- -- -- --
05:00 4.2 -0.6 -13.0 O 25.9 -- 29.6 27 850(-0.1/3h) -- -- -- --
04:00 1.1 -2.7 -12.6 NNO 13.0 -- 24.1 35 850(0.1/3h) -- -- -- --
03:00 0.0 -5.3 -12.0 N 20.4 -- 25.9 40 850(0.3/3h) -- -- -- --
02:00 0.4 -4.5 -12.4 NNO 18.5 -- 25.9 37 850(0.2/3h) -- -- -- --
01:00 0.1 -3.5 -12.0 NNO 11.1 -- 24.1 40 850(0.2/3h) -- -- -- --
00:00 1.9 -2.6 -14.4 NO 18.5 -- 37.0 29 850(0.0/3h) -- -- -- --

1 Coordinated Universal Time. Actuellement il est 15:00 locale et 13:00 UTC.

2 Le vent souffle depuis la direction indiquée vers la direction oposée.

3 Les rafales max. sont disponible 40 min après l'heure du relevé.

4 Pour les stations d'altitude (plus de 600m) le géopotentiel du niveau le plus proche de la pression obligatoire est indiqué.

5 Les stations disposant d'un diffuseur peuvent indiquer "trace". Cela signifie que des précipitations ont touchés le sol mais que la quantité est inférieure à 0.1 mm.

Copyright

Les données affichées sur cette page sont la propriété exclusive de Météo Suisse.

Récapitulatif de la journée
Température [°C] Vent [km/h] Ensoleillement4 [h] Precipitations totale5 [mm] Pression [Hpa]
Min1 Max.2 Moy.3 Max. Min Max.
-0.4 7.7 0 63.0 9 h 18 min 0 850.0 850.0

1 Température minimale relevée entre 18:00 UTC la veille et 18:00 UTC le jour donné.

2 Température maximale relevée entre 06:00 UTC le jour donné et 06:00 UTC le lendemain.

3 Vent moyen de la journée basé sur les relevés horaires.

4 Ensoleillement en heures relevé entre 06:00 UTC la veille et 06:00 UTC le jour donné.

5 Précipitations totales tombées entre 06:00 UTC la jour donné et 06:00 UTC le lendemain.

Graphiques horaires